createdAt,value
2023-04-29T00:02:00.891Z,999.47
2023-04-29T00:07:51.293Z,999.48
2023-04-29T00:13:37.349Z,999.49
2023-04-29T00:19:30.133Z,999.52
2023-04-29T00:25:15.495Z,999.53
2023-04-29T00:31:03.070Z,999.65
2023-04-29T00:37:02.019Z,999.68
2023-04-29T00:42:49.116Z,999.73
2023-04-29T00:48:35.514Z,999.73
2023-04-29T00:54:23.188Z,999.78
2023-04-29T01:00:16.313Z,999.76
2023-04-29T01:06:10.259Z,999.67
2023-04-29T01:12:03.854Z,999.69
2023-04-29T01:18:01.629Z,999.76
2023-04-29T01:23:47.175Z,999.78
2023-04-29T01:29:36.910Z,999.84
2023-04-29T01:35:30.138Z,999.84
2023-04-29T01:41:16.969Z,999.87
2023-04-29T01:47:10.442Z,999.88
2023-04-29T01:53:03.542Z,999.89
2023-04-29T01:59:05.576Z,999.85
2023-04-29T02:04:54.539Z,999.84
2023-04-29T02:10:50.252Z,999.83
2023-04-29T02:16:36.698Z,999.89
2023-04-29T02:22:33.044Z,999.92
2023-04-29T02:28:28.055Z,999.94
2023-04-29T02:34:14.650Z,999.99
2023-04-29T02:39:59.842Z,1000.09
2023-04-29T02:45:46.506Z,1000.17
2023-04-29T02:51:37.673Z,1000.19
2023-04-29T02:57:24.226Z,1000.21
2023-04-29T03:03:15.631Z,1000.3
2023-04-29T03:09:01.850Z,1000.21
2023-04-29T03:14:57.553Z,1000.24
2023-04-29T03:20:53.704Z,1000.33
2023-04-29T03:26:39.683Z,1000.44
2023-04-29T03:32:26.738Z,1000.58
2023-04-29T03:38:14.239Z,1000.6
2023-04-29T03:44:12.526Z,1000.62
2023-04-29T03:50:04.028Z,1000.65
2023-04-29T03:55:54.902Z,1000.76
2023-04-29T04:01:40.693Z,1000.84
2023-04-29T04:07:28.341Z,1000.88
2023-04-29T04:13:14.667Z,1000.93
2023-04-29T04:19:10.172Z,1000.95
2023-04-29T04:25:15.822Z,1000.98
2023-04-29T04:31:01.672Z,1001.08
2023-04-29T04:36:57.385Z,1001.13
2023-04-29T04:42:46.541Z,1001.2
2023-04-29T04:48:38.304Z,1001.25
2023-04-29T04:54:26.448Z,1001.36
2023-04-29T05:00:20.543Z,1001.43
2023-04-29T05:06:10.608Z,1001.46
2023-04-29T05:12:00.041Z,1001.44
2023-04-29T05:17:52.134Z,1001.46
2023-04-29T05:23:40.663Z,1001.51
2023-04-29T05:29:27.729Z,1001.53
2023-04-29T05:35:18.799Z,1001.62
2023-04-29T05:41:13.575Z,1001.63
2023-04-29T05:47:08.542Z,1001.67
2023-04-29T05:52:54.948Z,1001.8
2023-04-29T05:58:40.057Z,1001.91
2023-04-29T06:04:26.624Z,1001.99
2023-04-29T06:10:19.476Z,1002.07
2023-04-29T06:16:13.435Z,1002.05
2023-04-29T06:22:00.752Z,1002.15
2023-04-29T06:27:58.854Z,1002.2
2023-04-29T06:33:50.269Z,1002.26
2023-04-29T06:39:41.680Z,1002.39
2023-04-29T06:45:33.137Z,1002.45
2023-04-29T06:51:29.404Z,1002.45
2023-04-29T06:57:20.565Z,1002.42
2023-04-29T07:03:06.847Z,1002.53
2023-04-29T07:08:58.240Z,1002.61
2023-04-29T07:14:44.921Z,1002.66
2023-04-29T07:20:37.755Z,1002.72
2023-04-29T07:26:31.966Z,1002.74
2023-04-29T07:32:18.223Z,1002.82
2023-04-29T07:38:04.141Z,1002.86
2023-04-29T07:43:59.020Z,1002.91
2023-04-29T07:49:45.091Z,1003.03
2023-04-29T07:55:30.787Z,1003.06
2023-04-29T08:01:15.976Z,1003.15
2023-04-29T08:07:05.280Z,1003.2
2023-04-29T08:12:51.564Z,1003.21
2023-04-29T08:18:37.845Z,1003.26
2023-04-29T08:24:23.185Z,1003.31
2023-04-29T08:30:13.444Z,1003.37
2023-04-29T08:36:03.929Z,1003.46
2023-04-29T08:41:49.266Z,1003.47
2023-04-29T08:47:39.765Z,1003.53
2023-04-29T08:53:35.660Z,1003.56
2023-04-29T08:59:29.744Z,1003.61
2023-04-29T09:05:32.523Z,1003.66
2023-04-29T09:11:19.716Z,1003.73
2023-04-29T09:17:10.034Z,1003.73
2023-04-29T09:22:58.372Z,1003.78
2023-04-29T09:29:08.001Z,1003.8
2023-04-29T09:34:55.198Z,1003.82
2023-04-29T09:40:58.752Z,1003.89
2023-04-29T09:46:56.291Z,1003.84
2023-04-29T09:52:45.630Z,1003.92
2023-04-29T09:58:36.499Z,1003.86
2023-04-29T10:04:22.994Z,1003.94
2023-04-29T10:10:13.832Z,1003.98
2023-04-29T10:16:09.689Z,1004.04
2023-04-29T10:21:56.799Z,1004.13
2023-04-29T10:27:43.679Z,1004.14
2023-04-29T10:33:33.196Z,1004.12
2023-04-29T10:39:26.011Z,1004.15
2023-04-29T10:45:35.053Z,1004.2
2023-04-29T10:51:35.623Z,1004.25
2023-04-29T10:57:25.558Z,1004.23
2023-04-29T11:03:18.721Z,1004.24
2023-04-29T11:09:09.482Z,1004.26
2023-04-29T11:14:55.509Z,1004.29
2023-04-29T11:21:00.475Z,1004.3
2023-04-29T11:26:49.762Z,1004.3
2023-04-29T11:32:38.111Z,1004.35
2023-04-29T11:38:24.887Z,1004.34
2023-04-29T11:44:15.651Z,1004.29
2023-04-29T11:50:10.089Z,1004.32
2023-04-29T11:55:55.145Z,1004.34
2023-04-29T12:01:44.076Z,1004.33
2023-04-29T12:07:30.549Z,1004.27
2023-04-29T12:13:16.944Z,1004.29
2023-04-29T12:19:05.368Z,1004.25
2023-04-29T12:25:16.130Z,1004.35
2023-04-29T12:31:10.710Z,1004.32
2023-04-29T12:36:57.042Z,1004.28
2023-04-29T12:42:41.720Z,1004.26
2023-04-29T12:48:34.131Z,1004.25
2023-04-29T12:54:19.160Z,1004.32
2023-04-29T13:00:03.892Z,1004.3
2023-04-29T13:05:48.496Z,1004.4
2023-04-29T13:11:35.971Z,1004.39
2023-04-29T13:17:20.612Z,1004.42
2023-04-29T13:23:05.233Z,1004.43
2023-04-29T13:28:50.009Z,1004.42
2023-04-29T13:34:34.790Z,1004.39
2023-04-29T13:40:22.472Z,1004.3
2023-04-29T13:46:13.042Z,1004.33
2023-04-29T13:52:50.454Z,1004.38
2023-04-29T14:03:58.266Z,1004.37
2023-04-29T14:09:44.278Z,1004.33
2023-04-29T14:15:29.988Z,1004.37
2023-04-29T14:21:14.877Z,1004.37
2023-04-29T14:26:59.681Z,1004.44
2023-04-29T14:32:44.633Z,1004.46
2023-04-29T14:38:29.390Z,1004.56
2023-04-29T14:44:14.471Z,1004.63
2023-04-29T14:49:59.090Z,1004.6
2023-04-29T14:55:43.930Z,1004.64
2023-04-29T15:01:32.162Z,1004.6
2023-04-29T15:07:17.441Z,1004.51
2023-04-29T15:13:02.029Z,1004.52
2023-04-29T15:18:47.110Z,1004.5
2023-04-29T15:24:31.904Z,1004.47
2023-04-29T15:30:17.268Z,1004.46
2023-04-29T15:36:01.776Z,1004.48
2023-04-29T15:41:46.540Z,1004.53
2023-04-29T15:47:31.355Z,1004.54
2023-04-29T15:53:16.496Z,1004.55
2023-04-29T15:59:01.276Z,1004.61
2023-04-29T16:04:46.071Z,1004.58
2023-04-29T16:10:30.810Z,1004.53
2023-04-29T16:16:16.154Z,1004.58
2023-04-29T16:22:00.884Z,1004.59
2023-04-29T16:27:45.879Z,1004.55
2023-04-29T16:33:30.571Z,1004.49
2023-04-29T16:39:15.378Z,1004.5
2023-04-29T16:45:00.163Z,1004.51
2023-04-29T16:50:44.883Z,1004.54
2023-04-29T16:56:30.977Z,1004.45
2023-04-29T17:02:15.807Z,1004.42
2023-04-29T17:08:01.401Z,1004.39
2023-04-29T17:13:46.106Z,1004.45
2023-04-29T17:19:31.694Z,1004.67
2023-04-29T17:25:16.384Z,1004.57
2023-04-29T17:31:01.200Z,1004.49
2023-04-29T17:36:46.021Z,1004.48
2023-04-29T17:42:30.702Z,1004.46
2023-04-29T17:48:15.273Z,1004.41
2023-04-29T17:53:59.953Z,1004.4
2023-04-29T17:59:44.304Z,1004.42
2023-04-29T18:05:29.111Z,1004.41
2023-04-29T18:11:13.823Z,1004.55
2023-04-29T18:16:58.664Z,1004.56
2023-04-29T18:22:45.505Z,1004.72
2023-04-29T18:28:30.157Z,1004.74
2023-04-29T18:34:15.293Z,1004.75
2023-04-29T18:40:00.134Z,1004.72
2023-04-29T18:45:44.830Z,1004.81
2023-04-29T18:51:30.696Z,1004.83
2023-04-29T18:57:15.234Z,1004.81
2023-04-29T19:03:00.276Z,1004.8
2023-04-29T19:08:44.866Z,1004.87
2023-04-29T19:14:29.533Z,1004.88
2023-04-29T19:20:14.656Z,1004.96
2023-04-29T19:26:01.196Z,1005.04
2023-04-29T19:31:46.044Z,1005.04
2023-04-29T19:37:31.049Z,1005.11
2023-04-29T19:43:15.973Z,1005.1
2023-04-29T19:49:01.535Z,1005.14
2023-04-29T19:54:48.252Z,1005.17
2023-04-29T20:00:33.082Z,1005.23
2023-04-29T20:06:18.380Z,1005.26
2023-04-29T20:12:02.896Z,1005.27
2023-04-29T20:17:47.685Z,1005.26
2023-04-29T20:23:32.374Z,1005.24
2023-04-29T20:29:17.028Z,1005.24
2023-04-29T20:35:01.713Z,1005.27
2023-04-29T20:40:46.504Z,1005.33
2023-04-29T20:46:31.570Z,1005.31
2023-04-29T20:52:16.833Z,1005.37
2023-04-29T20:58:01.464Z,1005.36
2023-04-29T21:03:46.220Z,1005.37
2023-04-29T21:09:31.066Z,1005.42
2023-04-29T21:15:16.198Z,1005.57
2023-04-29T21:21:01.846Z,1005.61
2023-04-29T21:26:46.612Z,1005.67
2023-04-29T21:32:31.432Z,1005.69
2023-04-29T21:38:16.570Z,1005.73
2023-04-29T21:44:02.038Z,1005.71
2023-04-29T21:49:46.765Z,1005.72
2023-04-29T21:55:32.285Z,1005.79
2023-04-29T22:01:17.627Z,1005.85
2023-04-29T22:07:02.734Z,1005.9
2023-04-29T22:12:47.441Z,1005.88
2023-04-29T22:18:33.030Z,1005.86
2023-04-29T22:24:18.118Z,1005.89
2023-04-29T22:30:03.116Z,1005.91
2023-04-29T22:35:47.960Z,1005.95
2023-04-29T22:41:32.678Z,1006.07
2023-04-29T22:47:17.409Z,1006.09
2023-04-29T22:53:01.891Z,1005.99
2023-04-29T22:58:46.562Z,1005.99
2023-04-29T23:04:31.336Z,1005.91
2023-04-29T23:10:16.385Z,1005.96
2023-04-29T23:16:01.661Z,1006.01
2023-04-29T23:21:46.574Z,1005.98
2023-04-29T23:27:31.257Z,1006.04
2023-04-29T23:33:16.208Z,1006.06
2023-04-29T23:39:00.834Z,1006.16
2023-04-29T23:44:45.504Z,1006.25
2023-04-29T23:50:32.306Z,1006.19
2023-04-29T23:56:17.165Z,1006.13
